createdAt,value
2019-04-11T00:00:27.977Z,60.22
2019-04-11T00:01:36.814Z,60.41
2019-04-11T00:02:28.907Z,60.32
2019-04-11T00:03:27.908Z,59.84
2019-04-11T00:04:28.286Z,60.03
2019-04-11T00:05:28.602Z,60.03
2019-04-11T00:06:27.813Z,60.03
2019-04-11T00:07:28.023Z,60.13
2019-04-11T00:08:28.055Z,60.22
2019-04-11T00:09:27.747Z,59.94
2019-04-11T00:10:27.710Z,59.56
2019-04-11T00:11:28.170Z,59.56
2019-04-11T00:12:27.659Z,59.56
2019-04-11T00:13:29.149Z,59.56
2019-04-11T00:14:27.640Z,59.28
2019-04-11T00:15:28.649Z,59.75
2019-04-11T00:16:27.544Z,59.75
2019-04-11T00:17:28.048Z,59.28
2019-04-11T00:18:27.492Z,59.75
2019-04-11T00:19:27.474Z,59.56
2019-04-11T00:20:28.406Z,59.56
2019-04-11T00:21:27.407Z,59.84
2019-04-11T00:22:27.771Z,59.84
2019-04-11T00:23:27.351Z,59.84
2019-04-11T00:24:27.353Z,59.84
2019-04-11T00:25:27.551Z,59.66
2019-04-11T00:26:28.463Z,60.03
2019-04-11T00:27:27.271Z,59.84
2019-04-11T00:28:27.854Z,60.22
2019-04-11T00:29:28.098Z,60.32
2019-04-11T00:30:28.196Z,60.32
2019-04-11T00:31:27.140Z,60.51
2019-04-11T00:32:27.565Z,60.89
2019-04-11T00:33:27.087Z,60.61
2019-04-11T00:34:27.064Z,60.41
2019-04-11T00:35:27.914Z,60.41
2019-04-11T00:36:27.006Z,60.89
2019-04-11T00:37:27.346Z,60.51
2019-04-11T00:38:26.953Z,60.22
2019-04-11T00:39:27.841Z,60.51
2019-04-11T00:40:27.030Z,60.13
2019-04-11T00:41:27.993Z,59.94
2019-04-11T00:42:26.838Z,59.94
2019-04-11T00:43:31.628Z,60.32
2019-04-11T00:44:27.223Z,60.89
2019-04-11T00:45:27.554Z,60.29
2019-04-11T00:46:26.779Z,60.32
2019-04-11T00:47:26.947Z,60.29
2019-04-11T00:48:27.914Z,60.70
2019-04-11T00:49:26.655Z,59.94
2019-04-11T00:50:27.383Z,59.94
2019-04-11T00:51:27.655Z,59.94
2019-04-11T00:52:27.484Z,60.03
2019-04-11T00:53:27.716Z,60.13
2019-04-11T00:54:26.889Z,59.84
2019-04-11T00:55:27.183Z,59.56
2019-04-11T00:56:26.468Z,60.03
2019-04-11T00:57:26.435Z,60.03
2019-04-11T00:58:27.646Z,60.13
2019-04-11T00:59:26.695Z,60.22
2019-04-11T01:00:27.091Z,60.13
2019-04-11T01:01:26.326Z,60.03
2019-04-11T01:02:26.324Z,59.91
2019-04-11T01:03:26.460Z,59.81
2019-04-11T01:04:26.245Z,60.29
2019-04-11T01:05:26.218Z,60.29
2019-04-11T01:06:26.191Z,59.91
2019-04-11T01:07:26.988Z,60.38
2019-04-11T01:08:27.276Z,60.00
2019-04-11T01:09:26.387Z,60.10
2019-04-11T01:10:26.543Z,59.91
2019-04-11T01:11:26.055Z,59.53
2019-04-11T01:12:26.793Z,59.75
2019-04-11T01:13:26.002Z,59.47
2019-04-11T01:14:25.970Z,59.56
2019-04-11T01:15:27.123Z,60.38
2019-04-11T01:16:26.313Z,59.91
2019-04-11T01:17:25.887Z,60.19
2019-04-11T01:18:25.864Z,60.77
2019-04-11T01:19:26.860Z,60.00
2019-04-11T01:20:25.823Z,60.19
2019-04-11T01:21:26.430Z,60.19
2019-04-11T01:22:26.540Z,59.53
2019-04-11T01:23:25.728Z,59.75
2019-04-11T01:24:26.014Z,59.34
2019-04-11T01:25:25.682Z,59.91
2019-04-11T01:26:27.160Z,60.29
2019-04-11T01:27:25.767Z,60.38
2019-04-11T01:28:26.641Z,60.19
2019-04-11T01:29:25.561Z,60.19
2019-04-11T01:30:25.532Z,60.19
2019-04-11T01:31:25.507Z,60.86
2019-04-11T01:32:26.396Z,60.38
2019-04-11T01:33:25.449Z,60.77
2019-04-11T01:34:26.647Z,60.48
2019-04-11T01:35:25.540Z,60.38
2019-04-11T01:36:25.375Z,59.91
2019-04-11T01:37:25.994Z,59.91
2019-04-11T01:38:25.590Z,60.10
2019-04-11T01:39:26.537Z,60.10
2019-04-11T01:40:25.550Z,60.00
2019-04-11T01:41:25.233Z,60.10
2019-04-11T01:42:25.234Z,60.38
2019-04-11T01:43:26.102Z,60.77
2019-04-11T01:44:25.155Z,60.96
2019-04-11T01:45:25.345Z,61.24
2019-04-11T01:46:25.098Z,61.05
2019-04-11T01:47:25.069Z,61.24
2019-04-11T01:48:25.739Z,60.86
2019-04-11T01:49:25.008Z,61.15
2019-04-11T01:50:25.187Z,61.80
2019-04-11T01:51:25.431Z,61.33
2019-04-11T01:52:24.935Z,61.33
2019-04-11T01:53:24.906Z,61.33
2019-04-11T01:54:25.873Z,61.24
2019-04-11T01:55:24.850Z,61.71
2019-04-11T01:56:25.241Z,61.90
2019-04-11T01:57:25.590Z,61.90
2019-04-11T01:58:24.765Z,61.90
2019-04-11T01:59:24.739Z,61.71
2019-04-11T02:00:24.716Z,61.80
2019-04-11T02:01:25.092Z,61.90
2019-04-11T02:02:24.659Z,61.90
2019-04-11T02:03:25.420Z,62.09
2019-04-11T02:04:24.662Z,62.09
2019-04-11T02:05:25.162Z,62.09
2019-04-11T02:06:25.620Z,61.90
2019-04-11T02:07:24.751Z,62.37
2019-04-11T02:08:25.032Z,62.37
2019-04-11T02:09:24.465Z,62.56
2019-04-11T02:10:24.554Z,62.66
2019-04-11T02:11:25.525Z,62.37
2019-04-11T02:12:24.383Z,62.75
2019-04-11T02:13:24.351Z,62.37
2019-04-11T02:14:24.327Z,62.37
2019-04-11T02:15:24.299Z,62.18
2019-04-11T02:16:25.209Z,62.47
2019-04-11T02:17:24.435Z,62.94
2019-04-11T02:18:24.217Z,63.20
2019-04-11T02:19:32.205Z,63.20
2019-04-11T02:21:17.876Z,63.10
2019-04-11T02:22:18.021Z,63.29
2019-04-11T02:23:17.477Z,63.10
2019-04-11T02:24:17.491Z,63.48
2019-04-11T02:25:18.308Z,63.48
2019-04-11T02:26:17.376Z,63.57
2019-04-11T02:27:17.353Z,63.48
2019-04-11T02:28:17.331Z,63.48
2019-04-11T02:29:17.350Z,63.32
2019-04-11T02:30:20.058Z,62.94
2019-04-11T02:31:19.210Z,62.94
2019-04-11T02:32:18.554Z,63.32
2019-04-11T02:33:18.374Z,63.42
2019-04-11T02:34:17.161Z,62.94
2019-04-11T02:35:17.836Z,62.94
2019-04-11T02:36:18.708Z,63.13
2019-04-11T02:37:17.360Z,63.42
2019-04-11T02:38:18.734Z,63.57
2019-04-11T02:39:19.194Z,63.32
2019-04-11T02:40:17.672Z,63.42
2019-04-11T02:41:17.179Z,63.51
2019-04-11T02:42:16.965Z,63.76
2019-04-11T02:43:17.653Z,63.57
2019-04-11T02:44:30.669Z,64.23
2019-04-11T02:45:30.822Z,64.61
2019-04-11T02:46:23.228Z,64.90
2019-04-11T02:47:22.817Z,64.99
2019-04-11T02:48:18.229Z,64.52
2019-04-11T02:49:17.023Z,64.90
2019-04-11T02:50:19.816Z,64.90
2019-04-11T02:51:18.201Z,64.80
2019-04-11T02:52:17.571Z,64.80
2019-04-11T02:53:17.044Z,65.37
2019-04-11T02:54:17.937Z,65.56
2019-04-11T02:55:17.129Z,65.84
2019-04-11T02:56:17.413Z,65.37
2019-04-11T02:57:18.177Z,66.22
2019-04-11T02:58:16.494Z,66.31
2019-04-11T02:59:17.685Z,66.31
2019-04-11T03:00:18.074Z,66.50
2019-04-11T03:01:17.770Z,66.60
2019-04-11T03:02:19.254Z,66.79
2019-04-11T03:03:17.431Z,66.41
2019-04-11T03:04:16.685Z,66.79
2019-04-11T03:05:16.408Z,67.07
2019-04-11T03:06:17.538Z,67.36
2019-04-11T03:07:16.632Z,67.41
2019-04-11T03:08:19.201Z,67.22
2019-04-11T03:09:17.800Z,67.79
2019-04-11T03:10:16.551Z,67.22
2019-04-11T03:11:16.706Z,67.70
2019-04-11T03:12:16.110Z,68.17
2019-04-11T03:13:16.755Z,68.17
2019-04-11T03:14:17.517Z,68.46
2019-04-11T03:15:32.105Z,68.36
2019-04-11T03:16:29.741Z,68.55
2019-04-11T03:17:21.279Z,68.55
2019-04-11T03:18:35.621Z,68.55
2019-04-11T03:19:29.598Z,68.36
2019-04-11T03:20:26.501Z,68.36
2019-04-11T03:21:20.339Z,68.55
2019-04-11T03:22:16.152Z,68.74
2019-04-11T03:23:18.646Z,69.21
2019-04-11T03:24:17.444Z,69.02
2019-04-11T03:25:15.749Z,69.12
2019-04-11T03:26:16.875Z,69.21
2019-04-11T03:27:15.711Z,68.74
2019-04-11T03:28:21.144Z,69.12
2019-04-11T03:29:15.632Z,68.36
2019-04-11T03:30:21.064Z,68.55
2019-04-11T03:31:50.260Z,68.55
2019-04-11T03:33:07.254Z,67.79
2019-04-11T03:34:01.257Z,67.83
2019-04-11T03:37:38.062Z,67.07
2019-04-11T03:38:36.822Z,67.64
2019-04-11T03:39:41.234Z,67.55
2019-04-11T03:40:32.255Z,66.98
2019-04-11T03:41:26.930Z,67.07
2019-04-11T03:42:32.347Z,66.98
2019-04-11T03:43:30.237Z,67.55
2019-04-11T03:44:23.527Z,67.17
2019-04-11T03:45:40.127Z,67.26
2019-04-11T03:46:34.945Z,67.55
2019-04-11T03:47:27.864Z,67.45
2019-04-11T03:48:29.048Z,67.64
2019-04-11T03:49:27.913Z,67.36
2019-04-11T03:50:17.452Z,67.45
2019-04-11T03:51:16.470Z,67.45
2019-04-11T03:52:15.150Z,67.64
2019-04-11T03:53:17.042Z,67.36
2019-04-11T03:54:15.709Z,67.26
2019-04-11T03:55:15.663Z,67.36
2019-04-11T03:56:16.243Z,67.36
2019-04-11T03:57:15.747Z,66.98
2019-04-11T03:58:15.393Z,67.45
2019-04-11T03:59:16.622Z,67.45
2019-04-11T04:00:15.583Z,67.26
2019-04-11T04:01:16.192Z,66.88
2019-04-11T04:02:16.718Z,67.45
2019-04-11T04:03:14.667Z,67.26
2019-04-11T04:04:15.487Z,67.93
2019-04-11T04:05:15.268Z,67.93
2019-04-11T04:06:14.830Z,67.36
2019-04-11T04:07:16.491Z,67.36
2019-04-11T04:08:14.535Z,67.07
2019-04-11T04:09:16.310Z,67.45
2019-04-11T04:10:15.725Z,68.02
2019-04-11T04:11:14.831Z,67.74
2019-04-11T04:12:15.568Z,67.36
2019-04-11T04:13:16.825Z,67.36
2019-04-11T04:14:15.030Z,67.36
2019-04-11T04:15:33.978Z,67.74
2019-04-11T04:16:22.150Z,68.02
2019-04-11T04:17:14.844Z,67.36
2019-04-11T04:18:15.154Z,67.64
2019-04-11T04:19:16.213Z,67.26
2019-04-11T04:20:15.165Z,67.55
2019-04-11T04:21:15.531Z,66.88
2019-04-11T04:22:15.766Z,66.41
2019-04-11T04:23:14.242Z,66.41
2019-04-11T04:24:14.548Z,66.50
2019-04-11T04:25:14.330Z,66.50
2019-04-11T04:26:14.744Z,66.79
2019-04-11T04:27:15.409Z,66.41
2019-04-11T04:28:15.602Z,67.07
2019-04-11T04:29:15.271Z,66.60
2019-04-11T04:30:15.910Z,66.69
2019-04-11T04:31:14.071Z,66.50
2019-04-11T04:32:14.214Z,66.69
2019-04-11T04:33:14.439Z,66.79
2019-04-11T04:34:15.411Z,66.69
2019-04-11T04:35:18.645Z,66.60
2019-04-11T04:36:15.347Z,66.41
2019-04-11T04:37:14.151Z,67.07
2019-04-11T04:38:15.492Z,66.98
2019-04-11T04:39:13.668Z,66.98
2019-04-11T04:40:31.473Z,66.50
2019-04-11T04:41:24.728Z,66.69
2019-04-11T04:42:24.291Z,66.79
2019-04-11T04:43:14.604Z,66.79
2019-04-11T04:44:14.415Z,67.55
2019-04-11T04:45:15.704Z,67.17
2019-04-11T04:46:31.325Z,67.45
2019-04-11T04:47:21.455Z,67.26
2019-04-11T04:48:16.675Z,67.26
2019-04-11T04:49:15.165Z,67.36
2019-04-11T04:50:13.791Z,67.45
2019-04-11T04:51:15.514Z,67.45
2019-04-11T04:52:14.419Z,67.07
2019-04-11T04:53:13.699Z,67.45
2019-04-11T04:54:14.202Z,67.36
2019-04-11T04:55:13.395Z,67.45
2019-04-11T04:56:13.863Z,66.60
2019-04-11T04:57:13.290Z,66.60
2019-04-11T04:58:13.213Z,66.22
2019-04-11T04:59:14.630Z,65.75
2019-04-11T05:00:14.287Z,65.75
2019-04-11T05:01:14.989Z,65.09
2019-04-11T05:02:13.022Z,65.28
2019-04-11T05:03:13.527Z,65.18
2019-04-11T05:04:13.986Z,64.52
2019-04-11T05:05:13.620Z,65.09
2019-04-11T05:06:14.163Z,64.71
2019-04-11T05:07:12.873Z,64.61
2019-04-11T05:08:14.374Z,64.33
2019-04-11T05:09:12.939Z,64.90
2019-04-11T05:10:13.471Z,64.52
2019-04-11T05:11:14.007Z,65.09
2019-04-11T05:12:13.890Z,64.80
2019-04-11T05:13:13.761Z,64.99
2019-04-11T05:14:12.676Z,65.12
2019-04-11T05:15:14.415Z,64.52
2019-04-11T05:16:17.142Z,64.55
2019-04-11T05:17:12.911Z,64.45
2019-04-11T05:18:15.259Z,64.17
2019-04-11T05:19:12.868Z,63.42
2019-04-11T05:20:12.520Z,62.94
2019-04-11T05:21:12.872Z,62.75
2019-04-11T05:22:12.630Z,63.13
2019-04-11T05:23:12.441Z,62.37
2019-04-11T05:24:12.574Z,61.71
2019-04-11T05:25:12.656Z,61.71
2019-04-11T05:26:12.347Z,61.61
2019-04-11T05:27:12.586Z,61.27
2019-04-11T05:28:12.300Z,59.84
2019-04-11T05:29:13.178Z,59.50
2019-04-11T05:30:12.237Z,58.29
2019-04-11T05:31:12.239Z,56.78
2019-04-11T05:32:13.175Z,55.00
2019-04-11T05:33:12.160Z,54.44
2019-04-11T05:34:12.136Z,52.26
2019-04-11T05:35:12.116Z,52.16
2019-04-11T05:36:12.331Z,52.16
2019-04-11T05:37:13.126Z,52.09
2019-04-11T05:38:12.487Z,51.59
2019-04-11T05:39:13.086Z,51.50
2019-04-11T05:40:12.669Z,51.33
2019-04-11T05:41:12.686Z,50.48
2019-04-11T05:42:15.997Z,50.57
2019-04-11T05:43:11.906Z,49.84
2019-04-11T05:44:12.550Z,49.46
2019-04-11T05:45:17.149Z,48.61
2019-04-11T05:46:26.104Z,47.66
2019-04-11T05:47:15.861Z,48.03
2019-04-11T05:48:11.781Z,47.28
2019-04-11T05:49:11.757Z,46.51
2019-04-11T05:50:13.704Z,46.33
2019-04-11T05:51:11.714Z,46.35
2019-04-11T05:52:12.301Z,45.78
2019-04-11T05:53:11.666Z,44.81
2019-04-11T05:54:12.215Z,44.71
2019-04-11T05:55:13.601Z,44.83
2019-04-11T05:56:16.036Z,44.73
2019-04-11T05:57:11.569Z,44.71
2019-04-11T05:58:14.227Z,44.81
2019-04-11T05:59:14.778Z,44.54
2019-04-11T06:00:11.808Z,43.98
2019-04-11T06:01:13.368Z,43.60
2019-04-11T06:02:11.479Z,43.60
2019-04-11T06:03:11.488Z,43.50
2019-04-11T06:04:15.179Z,43.38
2019-04-11T06:05:11.395Z,43.01
2019-04-11T06:06:11.378Z,43.29
2019-04-11T06:07:11.932Z,43.57
2019-04-11T06:08:12.545Z,43.48
2019-04-11T06:09:13.356Z,43.95
2019-04-11T06:10:12.927Z,44.05
2019-04-11T06:11:14.446Z,43.76
2019-04-11T06:12:11.643Z,43.29
2019-04-11T06:13:12.128Z,43.76
2019-04-11T06:14:11.207Z,44.17
2019-04-11T06:15:20.375Z,42.93
2019-04-11T06:17:05.208Z,42.24
2019-04-11T06:18:04.879Z,42.53
2019-04-11T06:19:57.904Z,42.08
2019-04-11T06:20:57.926Z,42.36
2019-04-11T06:21:58.170Z,42.36
2019-04-11T06:22:58.262Z,41.69
2019-04-11T06:23:57.914Z,41.53
2019-04-11T06:24:58.623Z,41.03
2019-04-11T06:25:59.235Z,41.31
2019-04-11T06:26:58.870Z,40.75
2019-04-11T06:27:57.953Z,40.77
2019-04-11T06:29:16.333Z,40.56
2019-04-11T06:30:51.088Z,40.84
2019-04-11T06:31:51.614Z,40.94
2019-04-11T06:33:44.847Z,41.13
2019-04-11T06:34:44.106Z,41.03
2019-04-11T06:36:37.067Z,41.05
2019-04-11T06:37:38.047Z,40.27
2019-04-11T06:39:31.498Z,40.65
2019-04-11T06:40:32.585Z,40.20
2019-04-11T06:41:32.667Z,39.72
2019-04-11T06:42:31.835Z,40.20
2019-04-11T06:43:32.106Z,40.17
2019-04-11T06:44:32.055Z,40.65
2019-04-11T06:45:31.895Z,40.37
2019-04-11T06:46:31.399Z,40.27
2019-04-11T06:47:32.546Z,40.27
2019-04-11T06:48:31.789Z,40.56
2019-04-11T06:49:31.221Z,40.84
2019-04-11T06:50:31.788Z,41.03
2019-04-11T06:51:32.358Z,40.56
2019-04-11T06:52:31.159Z,41.03
2019-04-11T06:53:32.180Z,41.03
2019-04-11T06:54:31.150Z,40.84
2019-04-11T06:55:31.087Z,41.14
2019-04-11T06:56:31.097Z,40.86
2019-04-11T06:57:32.118Z,40.01
2019-04-11T06:58:31.860Z,39.53
2019-04-11T06:59:32.289Z,39.25
2019-04-11T07:00:31.463Z,39.15
2019-04-11T07:01:31.053Z,39.34
2019-04-11T07:02:32.037Z,38.87
2019-04-11T07:03:32.424Z,38.48
2019-04-11T07:04:30.942Z,38.58
2019-04-11T07:05:30.948Z,38.48
2019-04-11T07:06:31.429Z,38.22
2019-04-11T07:07:32.361Z,38.29
2019-04-11T07:08:31.906Z,38.41
2019-04-11T07:09:31.024Z,38.10
2019-04-11T07:10:30.798Z,37.44
2019-04-11T07:11:31.771Z,37.27
2019-04-11T07:12:30.844Z,36.89
2019-04-11T07:13:30.796Z,36.49
2019-04-11T07:14:31.210Z,36.77
2019-04-11T07:15:31.526Z,37.15
2019-04-11T07:16:30.799Z,37.15
2019-04-11T07:17:31.684Z,37.74
2019-04-11T07:18:31.224Z,37.08
2019-04-11T07:19:30.759Z,36.22
2019-04-11T07:20:31.438Z,35.84
2019-04-11T07:21:31.062Z,36.11
2019-04-11T07:22:30.609Z,35.63
2019-04-11T07:23:30.738Z,36.04
2019-04-11T07:24:30.577Z,36.02
2019-04-11T07:25:31.086Z,35.56
2019-04-11T07:26:30.507Z,35.65
2019-04-11T07:27:30.510Z,35.27
2019-04-11T07:28:31.444Z,35.27
2019-04-11T07:29:31.512Z,35.65
2019-04-11T07:30:31.054Z,35.75
2019-04-11T07:31:31.973Z,35.29
2019-04-11T07:32:30.401Z,35.10
2019-04-11T07:33:31.208Z,34.92
2019-04-11T07:34:33.261Z,34.36
2019-04-11T07:35:30.346Z,34.26
2019-04-11T07:36:31.547Z,34.45
2019-04-11T07:37:30.349Z,34.45
2019-04-11T07:38:31.971Z,34.38
2019-04-11T07:39:31.103Z,34.47
2019-04-11T07:40:31.442Z,33.90
2019-04-11T07:41:31.784Z,33.03
2019-04-11T07:42:30.975Z,33.88
2019-04-11T07:43:31.296Z,34.24
2019-04-11T07:44:30.607Z,34.24
2019-04-11T07:45:30.206Z,34.81
2019-04-11T07:46:30.767Z,35.00
2019-04-11T07:47:30.257Z,35.29
2019-04-11T07:48:30.276Z,35.10
2019-04-11T07:49:30.666Z,34.72
2019-04-11T07:50:31.176Z,34.81
2019-04-11T07:51:30.132Z,34.81
2019-04-11T07:52:31.881Z,34.34
2019-04-11T07:53:30.833Z,34.83
2019-04-11T07:54:30.359Z,34.91
2019-04-11T07:55:30.097Z,35.50
2019-04-11T07:56:30.010Z,35.31
2019-04-11T07:57:30.640Z,35.69
2019-04-11T07:58:30.816Z,35.71
2019-04-11T07:59:29.987Z,34.92
2019-04-11T08:00:39.898Z,34.83
2019-04-11T08:01:29.920Z,34.92
2019-04-11T08:02:31.146Z,35.23
2019-04-11T08:03:29.912Z,34.77
2019-04-11T08:04:30.009Z,34.18
2019-04-11T08:05:30.221Z,35.13
2019-04-11T08:06:30.986Z,35.63
2019-04-11T08:07:30.460Z,34.66
2019-04-11T08:08:30.306Z,34.94
2019-04-11T08:09:29.801Z,35.60
2019-04-11T08:10:29.815Z,35.69
2019-04-11T08:11:29.792Z,37.52
2019-04-11T08:12:29.775Z,36.37
2019-04-11T08:13:30.387Z,35.99
2019-04-11T08:14:30.760Z,36.18
2019-04-11T08:15:29.745Z,36.08
2019-04-11T08:16:30.782Z,35.89
2019-04-11T08:17:36.843Z,36.10
2019-04-11T08:18:29.676Z,36.01
2019-04-11T08:19:30.954Z,35.44
2019-04-11T08:20:29.688Z,35.82
2019-04-11T08:21:30.210Z,35.13
2019-04-11T08:22:30.648Z,35.13
2019-04-11T08:23:29.794Z,35.61
2019-04-11T08:24:30.008Z,36.18
2019-04-11T08:25:29.594Z,35.72
2019-04-11T08:26:30.443Z,35.53
2019-04-11T08:27:29.555Z,35.72
2019-04-11T08:28:29.553Z,34.77
2019-04-11T08:29:30.436Z,34.47
2019-04-11T08:30:29.517Z,34.94
2019-04-11T08:31:30.642Z,35.71
2019-04-11T08:32:29.671Z,35.63
2019-04-11T08:33:30.801Z,34.67
2019-04-11T08:34:29.460Z,34.30
2019-04-11T08:35:30.362Z,33.91
2019-04-11T08:36:29.618Z,33.53
2019-04-11T08:37:29.644Z,33.82
2019-04-11T08:38:29.394Z,34.39
2019-04-11T08:39:29.428Z,34.69
2019-04-11T08:40:30.092Z,34.30
2019-04-11T08:41:29.515Z,34.58
2019-04-11T08:42:29.621Z,34.47
2019-04-11T08:43:29.339Z,34.77
2019-04-11T08:44:30.063Z,35.06
2019-04-11T08:45:29.761Z,34.77
2019-04-11T08:46:29.314Z,34.48
2019-04-11T09:05:20.550Z,33.07
2019-04-11T09:06:20.791Z,33.47
2019-04-11T09:07:21.178Z,33.68
2019-04-11T09:08:20.391Z,32.74
2019-04-11T09:09:20.932Z,31.31
2019-04-11T09:10:53.564Z,30.53
2019-04-11T09:11:48.968Z,30.90
2019-04-11T09:13:43.862Z,32.23
2019-04-11T09:14:42.872Z,32.04
2019-04-11T09:15:43.265Z,32.42
2019-04-11T09:16:42.847Z,32.04
2019-04-11T09:17:54.881Z,31.93
2019-04-11T09:18:43.950Z,31.84
2019-04-11T09:19:43.096Z,32.29
2019-04-11T09:20:43.439Z,32.20
2019-04-11T09:21:42.817Z,33.15
2019-04-11T09:22:42.779Z,32.39
2019-04-11T09:23:43.901Z,32.88
2019-04-11T09:24:43.174Z,32.60
2019-04-11T09:25:43.462Z,33.09
2019-04-11T09:26:42.735Z,32.81
2019-04-11T09:27:42.739Z,32.71
2019-04-11T09:28:43.928Z,32.34
2019-04-11T09:29:42.713Z,31.29
2019-04-11T09:30:43.149Z,31.37
2019-04-11T09:31:43.962Z,31.29
2019-04-11T09:32:42.666Z,31.21
2019-04-11T09:33:42.641Z,31.12
2019-04-11T09:34:43.931Z,30.66
2019-04-11T09:35:43.646Z,30.08
2019-04-11T09:36:42.606Z,30.18
2019-04-11T09:37:44.225Z,29.70
2019-04-11T09:38:42.610Z,29.22
2019-04-11T09:39:43.514Z,29.88
2019-04-11T09:40:43.657Z,30.07
2019-04-11T09:41:42.774Z,30.63
2019-04-11T09:42:43.088Z,30.43
2019-04-11T09:43:42.511Z,31.20
2019-04-11T09:44:42.551Z,31.20
2019-04-11T09:45:43.810Z,30.72
2019-04-11T09:46:42.810Z,30.99
2019-04-11T09:47:42.504Z,31.76
2019-04-11T09:48:42.477Z,31.98
2019-04-11T09:49:42.950Z,30.53
2019-04-11T09:50:42.735Z,29.67
2019-04-11T09:51:42.450Z,30.24
2019-04-11T09:52:42.424Z,29.67
2019-04-11T09:53:42.987Z,30.99
2019-04-11T09:54:42.402Z,31.16
2019-04-11T09:55:42.376Z,31.76
2019-04-11T09:56:43.009Z,31.37
2019-04-11T09:57:42.368Z,31.18
2019-04-11T09:58:42.346Z,31.18
2019-04-11T09:59:42.347Z,30.82
2019-04-11T10:00:43.108Z,30.05
2019-04-11T10:01:51.739Z,30.43
2019-04-11T10:03:35.227Z,30.63
2019-04-11T10:04:36.036Z,30.63
2019-04-11T10:06:32.266Z,30.16
2019-04-11T10:07:31.130Z,29.30
2019-04-11T10:09:26.125Z,27.70
2019-04-11T10:10:26.691Z,27.70
2019-04-11T10:12:20.045Z,27.34
2019-04-11T10:13:20.485Z,26.10
2019-04-11T10:15:13.520Z,27.68
2019-04-11T10:16:12.525Z,27.84
2019-04-11T10:18:05.274Z,29.07
2019-04-11T10:19:05.482Z,29.16
2019-04-11T10:20:59.236Z,30.61
2019-04-11T10:21:58.529Z,29.36
2019-04-11T10:22:58.397Z,29.45
2019-04-11T10:23:58.939Z,29.66
2019-04-11T10:24:58.902Z,30.63
2019-04-11T10:25:59.259Z,30.93
2019-04-11T10:26:58.437Z,29.49
2019-04-11T10:27:58.066Z,29.89
2019-04-11T10:28:58.067Z,29.03
2019-04-11T10:29:58.979Z,27.97
2019-04-11T10:30:58.040Z,28.36
2019-04-11T10:31:59.040Z,28.36
2019-04-11T10:32:59.320Z,27.86
2019-04-11T10:33:57.999Z,28.80
2019-04-11T10:34:57.991Z,29.47
2019-04-11T10:35:58.926Z,29.94
2019-04-11T10:36:59.077Z,29.86
2019-04-11T10:37:58.213Z,29.49
2019-04-11T10:38:57.939Z,29.21
2019-04-11T10:39:57.931Z,29.11
2019-04-11T10:40:58.698Z,29.59
2019-04-11T10:41:57.965Z,30.18
2019-04-11T10:42:58.140Z,29.30
2019-04-11T10:43:59.299Z,28.73
2019-04-11T10:44:58.281Z,29.32
2019-04-11T10:45:58.788Z,28.84
2019-04-11T10:46:57.871Z,28.27
2019-04-11T10:47:57.847Z,28.54
2019-04-11T10:49:05.398Z,28.33
2019-04-11T10:50:50.775Z,29.19
2019-04-11T10:51:58.443Z,30.05
2019-04-11T10:53:45.700Z,30.45
2019-04-11T10:54:45.334Z,29.69
2019-04-11T10:56:39.747Z,29.59
2019-04-11T10:57:40.381Z,29.32
2019-04-11T10:59:32.922Z,29.21
2019-04-11T11:00:33.455Z,29.13
2019-04-11T11:02:25.515Z,29.11
2019-04-11T11:03:27.291Z,29.49
2019-04-11T11:05:19.477Z,28.73
2019-04-11T11:06:18.368Z,29.21
2019-04-11T11:08:11.280Z,29.59
2019-04-11T11:09:12.205Z,29.80
2019-04-11T11:11:04.190Z,28.76
2019-04-11T11:12:05.124Z,27.22
2019-04-11T11:14:07.302Z,27.79
2019-04-11T11:15:00.963Z,27.23
2019-04-11T11:16:52.971Z,28.39
2019-04-11T11:18:27.662Z,27.62
2019-04-11T11:19:59.473Z,26.87
2019-04-11T11:20:53.919Z,26.10
2019-04-11T11:21:47.459Z,26.29
2019-04-11T11:22:48.203Z,26.10
2019-04-11T11:23:49.240Z,27.25
2019-04-11T11:24:48.218Z,26.67
2019-04-11T11:25:50.035Z,26.10
2019-04-11T11:26:47.692Z,26.29
2019-04-11T11:27:48.022Z,26.39
2019-04-11T11:28:48.568Z,25.32
2019-04-11T11:29:47.585Z,27.05
2019-04-11T11:30:47.439Z,26.29
2019-04-11T11:31:48.087Z,26.39
2019-04-11T11:32:47.449Z,26.29
2019-04-11T11:33:47.352Z,25.73
2019-04-11T11:34:51.290Z,26.11
2019-04-11T11:35:47.793Z,26.30
2019-04-11T11:36:47.978Z,26.37
2019-04-11T11:37:49.185Z,27.23
2019-04-11T11:38:48.100Z,28.28
2019-04-11T11:39:47.269Z,28.27
2019-04-11T11:40:47.976Z,28.94
2019-04-11T11:41:47.237Z,28.84
2019-04-11T11:42:47.275Z,28.35
2019-04-11T11:43:48.263Z,28.92
2019-04-11T11:44:47.212Z,29.21
2019-04-11T11:45:51.769Z,30.19
2019-04-11T11:46:47.186Z,28.19
2019-04-11T11:47:47.174Z,28.77
2019-04-11T11:48:49.970Z,28.77
2019-04-11T11:49:56.507Z,28.09
2019-04-11T11:50:50.560Z,27.23
2019-04-11T11:51:47.790Z,27.23
2019-04-11T11:52:47.122Z,27.42
2019-04-11T11:53:47.127Z,28.88
2019-04-11T11:54:48.164Z,25.62
2019-04-11T11:55:47.366Z,26.39
2019-04-11T11:56:47.856Z,26.95
2019-04-11T11:57:47.080Z,27.70
2019-04-11T11:58:51.851Z,27.71
2019-04-11T11:59:48.296Z,27.70
2019-04-11T12:00:49.710Z,28.47
2019-04-11T12:01:49.754Z,27.60
2019-04-11T12:02:49.064Z,28.55
2019-04-11T12:03:47.187Z,28.08
2019-04-11T12:04:47.002Z,28.36
2019-04-11T12:05:50.191Z,28.55
2019-04-11T12:06:49.170Z,28.55
2019-04-11T12:07:47.386Z,28.47
2019-04-11T12:08:48.295Z,27.82
2019-04-11T12:09:46.945Z,27.72
2019-04-11T12:10:46.933Z,26.57
2019-04-11T12:11:46.918Z,27.45
2019-04-11T12:12:46.929Z,27.08
2019-04-11T12:13:47.487Z,26.51
2019-04-11T12:14:47.816Z,26.10
2019-04-11T12:15:46.882Z,26.10
2019-04-11T12:16:48.343Z,26.78
2019-04-11T12:17:47.052Z,26.48
2019-04-11T12:18:50.303Z,27.22
2019-04-11T12:19:52.666Z,27.61
2019-04-11T12:20:47.877Z,27.23
2019-04-11T12:21:48.907Z,26.96
2019-04-11T12:22:49.198Z,26.10
2019-04-11T12:23:56.196Z,26.21
2019-04-11T12:24:48.191Z,26.30
2019-04-11T12:25:47.352Z,25.33
2019-04-11T12:26:47.590Z,26.19
2019-04-11T12:27:46.792Z,26.35
2019-04-11T12:28:47.787Z,26.74
2019-04-11T12:29:49.012Z,26.85
2019-04-11T12:30:46.756Z,27.42
2019-04-11T12:31:48.020Z,28.49
2019-04-11T12:32:46.736Z,26.40
2019-04-11T12:33:47.834Z,25.92
2019-04-11T12:34:47.183Z,25.81
2019-04-11T12:35:46.664Z,26.50
2019-04-11T12:36:50.105Z,24.98
2019-04-11T12:37:50.484Z,24.98
2019-04-11T12:38:46.634Z,25.16
2019-04-11T12:39:46.726Z,25.09
2019-04-11T12:40:46.656Z,25.10
2019-04-11T12:41:46.596Z,24.79
2019-04-11T12:42:47.030Z,24.49
2019-04-11T12:43:46.745Z,24.66
2019-04-11T12:44:46.611Z,26.29
2019-04-11T12:45:46.579Z,25.89
2019-04-11T12:46:46.591Z,26.67
2019-04-11T12:47:46.562Z,26.75
2019-04-11T12:48:46.563Z,26.48
2019-04-11T12:49:52.885Z,26.57
2019-04-11T12:50:46.559Z,27.26
2019-04-11T12:51:46.542Z,26.87
2019-04-11T12:52:46.519Z,26.39
2019-04-11T12:53:46.528Z,26.86
2019-04-11T12:54:46.539Z,26.67
2019-04-11T12:55:46.506Z,26.76
2019-04-11T12:56:46.601Z,27.36
2019-04-11T12:57:46.531Z,27.05
2019-04-11T12:58:46.462Z,26.87
2019-04-11T12:59:46.435Z,26.00
2019-04-11T13:00:46.415Z,25.89
2019-04-11T13:01:46.428Z,26.18
2019-04-11T13:02:46.452Z,26.95
2019-04-11T13:03:46.575Z,27.25
2019-04-11T13:04:46.345Z,27.42
2019-04-11T13:05:46.343Z,28.01
2019-04-11T13:06:46.339Z,26.29
2019-04-11T13:07:46.292Z,26.00
2019-04-11T13:08:46.299Z,26.57
2019-04-11T13:09:46.627Z,26.57
2019-04-11T13:10:46.301Z,26.59
2019-04-11T13:11:46.389Z,25.73
2019-04-11T13:12:46.378Z,25.35
2019-04-11T13:13:46.382Z,26.22
2019-04-11T13:14:46.355Z,25.35
2019-04-11T13:15:46.331Z,26.57
2019-04-11T13:16:46.318Z,27.82
2019-04-11T13:17:46.247Z,27.82
2019-04-11T13:18:46.335Z,27.91
2019-04-11T13:19:46.290Z,27.15
2019-04-11T13:20:46.331Z,27.25
2019-04-11T13:21:46.323Z,27.16
2019-04-11T13:22:46.260Z,26.40
2019-04-11T13:23:46.113Z,26.11
2019-04-11T13:24:46.230Z,26.12
2019-04-11T13:25:46.121Z,25.07
2019-04-11T13:26:46.097Z,24.69
2019-04-11T13:27:46.140Z,24.88
2019-04-11T13:28:46.076Z,25.18
2019-04-11T13:29:46.185Z,23.73
2019-04-11T13:30:46.130Z,24.19
2019-04-11T13:31:46.026Z,24.02
2019-04-11T13:32:46.146Z,24.40
2019-04-11T13:33:46.103Z,24.98
2019-04-11T13:34:46.114Z,24.87
2019-04-11T13:35:46.001Z,25.43
2019-04-11T13:36:46.003Z,26.01